Time;durP1;ratioP1;P1;durP2;ratioP2;P2;SDS_P1;SDS_P2;PMS_P1;PMS_P2;Temp;Humidity;BMP_temperature;BMP_pressure;BME280_temperature;BME280_humidity;BME280_pressure;Samples;Min_cycle;Max_cycle;Signal;HPM_P1;HPM_P2
2022/09/26 00:01:41;;;;;;;;;;;20.30;99.90;;;;;;5034995;28;19924;-66
2022/09/26 00:04:19;;;;;;;;;;;20.30;99.90;;;;;;5046696;28;19924;-67
2022/09/26 00:06:51;;;;;;;;;;;20.30;99.90;;;;;;5039851;28;19929;-66
2022/09/26 00:09:18;;;;;;;;;;;20.30;99.90;;;;;;5034416;28;19929;-67
2022/09/26 00:11:45;;;;;;;;;;;20.30;99.90;;;;;;5036021;28;20475;-65
2022/09/26 00:14:14;;;;;;;;;;;20.30;99.90;;;;;;5036388;28;19937;-67
2022/09/26 00:16:41;;;;;;;;;;;20.30;99.90;;;;;;5027340;28;19935;-67
2022/09/26 00:19:08;;;;;;;;;;;20.30;99.90;;;;;;5034345;28;19930;-67
2022/09/26 00:21:35;;;;;;;;;;;20.30;99.90;;;;;;5041829;28;19940;-67
2022/09/26 00:24:03;;;;;;;;;;;20.30;99.90;;;;;;5019696;28;19941;-65
2022/09/26 00:26:31;;;;;;;;;;;20.30;99.90;;;;;;5035374;28;19925;-65
2022/09/26 00:29:00;;;;;;;;;;;20.30;99.90;;;;;;5033972;28;19996;-66
2022/09/26 00:31:28;;;;;;;;;;;20.30;99.90;;;;;;5047269;28;20283;-66
2022/09/26 00:33:56;;;;;;;;;;;20.20;99.90;;;;;;5032315;28;19928;-66
2022/09/26 00:36:23;;;;;;;;;;;20.30;99.90;;;;;;5034205;28;19968;-65
2022/09/26 00:39:04;;;;;;;;;;;20.20;99.90;;;;;;5036773;28;19929;-67
2022/09/26 00:41:31;;;;;;;;;;;20.30;99.90;;;;;;5021211;28;20567;-66
2022/09/26 00:43:59;;;;;;;;;;;20.20;99.90;;;;;;5033762;28;19933;-67
2022/09/26 00:46:39;;;;;;;;;;;20.20;99.90;;;;;;5052066;28;20418;-66
2022/09/26 00:49:24;;;;;;;;;;;20.20;99.90;;;;;;5049549;28;19936;-66
2022/09/26 00:51:55;;;;;;;;;;;20.20;99.90;;;;;;5052991;28;19929;-65
2022/09/26 00:54:22;;;;;;;;;;;20.20;99.90;;;;;;5036575;28;19930;-65
2022/09/26 00:56:51;;;;;;;;;;;20.20;99.90;;;;;;5012291;28;19936;-67
2022/09/26 00:59:30;;;;;;;;;;;20.20;99.90;;;;;;5028341;28;20403;-66
2022/09/26 01:01:57;;;;;;;;;;;20.20;99.90;;;;;;5027361;28;20276;-66
2022/09/26 01:04:27;;;;;;;;;;;20.20;99.90;;;;;;5024833;28;20351;-66
2022/09/26 01:06:55;;;;;;;;;;;20.20;99.90;;;;;;5040272;28;19929;-66
2022/09/26 01:09:22;;;;;;;;;;;20.20;99.90;;;;;;5011219;28;19929;-66
2022/09/26 01:11:52;;;;;;;;;;;20.20;99.90;;;;;;5003469;28;19935;-67
2022/09/26 01:14:20;;;;;;;;;;;20.20;99.90;;;;;;5032913;28;20328;-67
2022/09/26 01:16:50;;;;;;;;;;;20.10;99.90;;;;;;5031868;28;19960;-68
2022/09/26 01:19:27;;;;;;;;;;;20.10;99.90;;;;;;5024271;28;19952;-66
2022/09/26 01:22:14;;;;;;;;;;;20.10;99.90;;;;;;5049391;28;19929;-65
2022/09/26 01:24:59;;;;;;;;;;;20.10;99.90;;;;;;5024875;28;19929;-67
2022/09/26 01:27:42;;;;;;;;;;;20.10;99.90;;;;;;5013754;28;19944;-66
2022/09/26 01:30:18;;;;;;;;;;;20.10;99.90;;;;;;5039007;28;19929;-67
2022/09/26 01:33:13;;;;;;;;;;;20.10;99.90;;;;;;5024436;28;20309;-66
2022/09/26 01:36:06;;;;;;;;;;;20.10;99.90;;;;;;5023445;28;19940;-66
2022/09/26 01:38:43;;;;;;;;;;;20.10;99.90;;;;;;5020577;28;20510;-66
2022/09/26 01:41:20;;;;;;;;;;;20.10;99.90;;;;;;5026712;28;19926;-66
2022/09/26 01:44:00;;;;;;;;;;;20.10;99.90;;;;;;5030813;28;20316;-68
2022/09/26 01:46:38;;;;;;;;;;;20.10;99.90;;;;;;5029935;28;19925;-65
2022/09/26 01:49:13;;;;;;;;;;;20.10;99.90;;;;;;5030281;28;19928;-66
2022/09/26 01:51:46;;;;;;;;;;;20.10;99.90;;;;;;5028371;28;19935;-68
2022/09/26 01:54:22;;;;;;;;;;;20.10;99.90;;;;;;5005357;28;19936;-66
2022/09/26 01:56:50;;;;;;;;;;;20.10;99.90;;;;;;5016310;28;19940;-67
2022/09/26 01:59:22;;;;;;;;;;;20.10;99.90;;;;;;5032104;28;19926;-66
2022/09/26 02:01:53;;;;;;;;;;;20.10;99.90;;;;;;5016467;28;19933;-66
2022/09/26 02:04:24;;;;;;;;;;;20.00;99.90;;;;;;5019617;28;19951;-66
2022/09/26 02:06:55;;;;;;;;;;;20.10;99.90;;;;;;5029711;28;20408;-65
2022/09/26 02:09:25;;;;;;;;;;;20.00;99.90;;;;;;5014173;28;19936;-66
2022/09/26 02:11:57;;;;;;;;;;;20.00;99.90;;;;;;5020695;28;19930;-66
2022/09/26 02:14:28;;;;;;;;;;;20.00;99.90;;;;;;5036900;28;19937;-67
2022/09/26 02:16:58;;;;;;;;;;;20.00;99.90;;;;;;5016570;28;20411;-66
2022/09/26 02:19:34;;;;;;;;;;;20.00;99.90;;;;;;5028910;28;19930;-68
2022/09/26 02:22:01;;;;;;;;;;;20.00;99.90;;;;;;5038836;28;19930;-67
2022/09/26 02:24:28;;;;;;;;;;;20.00;99.90;;;;;;5026911;28;19925;-68
2022/09/26 02:26:56;;;;;;;;;;;20.00;99.90;;;;;;5023205;28;19935;-66
2022/09/26 02:29:23;;;;;;;;;;;20.00;99.90;;;;;;5049778;28;19925;-67
2022/09/26 02:32:04;;;;;;;;;;;20.00;99.90;;;;;;5041065;28;19928;-68
2022/09/26 02:34:32;;;;;;;;;;;20.00;99.90;;;;;;5054349;28;19925;-67
2022/09/26 02:37:00;;;;;;;;;;;20.00;99.90;;;;;;5026377;28;19935;-67
2022/09/26 02:39:32;;;;;;;;;;;20.00;99.90;;;;;;5019778;28;20416;-67
2022/09/26 02:42:22;;;;;;;;;;;20.00;99.90;;;;;;5026089;28;19929;-66
2022/09/26 02:44:49;;;;;;;;;;;19.90;99.90;;;;;;5019891;28;19940;-66
2022/09/26 02:47:22;;;;;;;;;;;19.90;99.90;;;;;;5034547;28;20412;-66
2022/09/26 02:50:08;;;;;;;;;;;19.90;99.90;;;;;;5028533;28;19935;-66
2022/09/26 02:52:51;;;;;;;;;;;19.90;99.90;;;;;;5029990;28;19929;-67
2022/09/26 02:55:34;;;;;;;;;;;19.90;99.90;;;;;;5021343;28;19925;-67
2022/09/26 02:58:14;;;;;;;;;;;19.90;99.90;;;;;;5039810;28;19926;-66
2022/09/26 03:00:44;;;;;;;;;;;19.90;99.90;;;;;;5036799;28;19929;-67
2022/09/26 03:03:15;;;;;;;;;;;19.90;99.90;;;;;;5026172;28;19929;-66
2022/09/26 03:05:44;;;;;;;;;;;19.90;99.90;;;;;;5030664;28;19929;-66
2022/09/26 03:08:23;;;;;;;;;;;19.90;99.90;;;;;;5043973;28;19936;-66
2022/09/26 03:10:51;;;;;;;;;;;19.90;99.90;;;;;;5033896;28;19928;-66
2022/09/26 03:13:19;;;;;;;;;;;19.90;99.90;;;;;;5022892;28;19925;-67
2022/09/26 03:15:49;;;;;;;;;;;19.90;99.90;;;;;;5047858;28;19929;-66
2022/09/26 03:18:18;;;;;;;;;;;19.90;99.90;;;;;;5044092;28;19933;-66
2022/09/26 03:20:46;;;;;;;;;;;19.90;99.90;;;;;;5029534;28;19948;-67
2022/09/26 03:23:13;;;;;;;;;;;19.90;99.90;;;;;;5034271;28;20317;-68
2022/09/26 03:25:43;;;;;;;;;;;19.90;99.90;;;;;;4991868;28;19925;-66
2022/09/26 03:28:13;;;;;;;;;;;19.90;99.90;;;;;;5018769;28;19929;-67
2022/09/26 03:30:40;;;;;;;;;;;19.90;99.90;;;;;;5047736;28;19941;-68
2022/09/26 03:33:28;;;;;;;;;;;19.90;99.90;;;;;;5025624;28;20404;-66
2022/09/26 03:35:57;;;;;;;;;;;19.90;99.90;;;;;;5043612;28;19929;-68
2022/09/26 03:38:25;;;;;;;;;;;19.90;99.90;;;;;;5019194;28;20131;-67
2022/09/26 03:41:09;;;;;;;;;;;19.90;99.90;;;;;;5016464;28;19929;-66
2022/09/26 03:43:55;;;;;;;;;;;19.80;99.90;;;;;;5027639;28;19929;-66
2022/09/26 03:46:25;;;;;;;;;;;19.80;99.90;;;;;;5005751;28;19929;-66
2022/09/26 03:48:52;;;;;;;;;;;19.80;99.90;;;;;;5037383;28;19929;-66
2022/09/26 03:51:19;;;;;;;;;;;19.80;99.90;;;;;;5036494;28;19932;-67
2022/09/26 03:53:47;;;;;;;;;;;19.80;99.90;;;;;;5041601;28;19926;-67
2022/09/26 03:56:17;;;;;;;;;;;19.90;99.90;;;;;;5013752;28;19933;-66
2022/09/26 03:58:45;;;;;;;;;;;20.00;99.90;;;;;;5027752;28;19935;-66
2022/09/26 04:01:13;;;;;;;;;;;20.10;99.90;;;;;;5020069;28;19929;-65
2022/09/26 04:03:42;;;;;;;;;;;20.20;99.90;;;;;;5021929;28;19936;-66
2022/09/26 04:06:18;;;;;;;;;;;20.20;99.90;;;;;;5032767;28;19934;-66
2022/09/26 04:08:47;;;;;;;;;;;20.30;99.90;;;;;;5019357;28;19933;-66
2022/09/26 04:11:16;;;;;;;;;;;20.50;99.90;;;;;;5016470;28;19928;-67
2022/09/26 04:13:43;;;;;;;;;;;20.60;99.90;;;;;;5018707;28;19929;-66
2022/09/26 04:16:22;;;;;;;;;;;20.80;99.90;;;;;;5021350;28;19924;-68
2022/09/26 04:19:00;;;;;;;;;;;20.80;99.90;;;;;;5004829;28;19929;-67
2022/09/26 04:21:28;;;;;;;;;;;20.90;99.90;;;;;;5019519;28;19932;-66
2022/09/26 04:23:57;;;;;;;;;;;21.00;99.90;;;;;;5019822;28;19929;-66
2022/09/26 04:26:25;;;;;;;;;;;21.00;99.90;;;;;;5031430;28;19929;-66
2022/09/26 04:28:53;;;;;;;;;;;21.00;99.90;;;;;;5036038;28;19936;-66
2022/09/26 04:31:23;;;;;;;;;;;21.00;99.90;;;;;;5009962;28;19928;-66
2022/09/26 04:33:57;;;;;;;;;;;21.00;99.90;;;;;;5006270;28;19932;-66
2022/09/26 04:36:24;;;;;;;;;;;21.00;99.90;;;;;;5039209;28;19925;-66
2022/09/26 04:38:51;;;;;;;;;;;21.00;99.90;;;;;;5014511;28;19940;-66
2022/09/26 04:41:20;;;;;;;;;;;21.00;99.90;;;;;;5002821;28;19929;-68
2022/09/26 04:43:49;;;;;;;;;;;21.00;99.90;;;;;;4999582;28;19933;-67
2022/09/26 04:46:20;;;;;;;;;;;21.00;99.90;;;;;;4993862;28;19936;-66
2022/09/26 04:48:55;;;;;;;;;;;21.00;99.90;;;;;;5002195;28;19925;-65
2022/09/26 04:51:24;;;;;;;;;;;21.00;99.90;;;;;;5006064;28;19948;-65
2022/09/26 04:53:51;;;;;;;;;;;21.00;99.90;;;;;;5038480;28;19951;-65
2022/09/26 04:56:25;;;;;;;;;;;21.00;99.90;;;;;;4995882;28;19930;-66
2022/09/26 04:58:55;;;;;;;;;;;21.10;99.90;;;;;;5015029;28;19936;-66
2022/09/26 05:01:24;;;;;;;;;;;21.00;99.90;;;;;;5042166;28;19932;-67
2022/09/26 05:04:06;;;;;;;;;;;21.00;99.90;;;;;;5017667;28;20687;-67
2022/09/26 05:06:33;;;;;;;;;;;21.00;99.90;;;;;;5030538;28;20408;-67
2022/09/26 05:09:03;;;;;;;;;;;21.00;99.90;;;;;;5011464;28;19932;-68
2022/09/26 05:11:40;;;;;;;;;;;21.00;99.90;;;;;;5004331;28;19929;-68
2022/09/26 05:14:10;;;;;;;;;;;21.00;99.90;;;;;;5008326;28;19936;-66
2022/09/26 05:16:38;;;;;;;;;;;20.90;99.90;;;;;;5004602;28;19932;-67
2022/09/26 05:19:10;;;;;;;;;;;21.00;99.90;;;;;;5011156;28;19936;-68
2022/09/26 05:21:46;;;;;;;;;;;21.00;99.90;;;;;;5010981;28;19929;-67
2022/09/26 05:26:59;;;;;;;;;;;20.20;99.90;;;;;;5004613;28;19926;-67
2022/09/26 05:29:26;;;;;;;;;;;19.30;99.90;;;;;;5014157;28;19929;-66
2022/09/26 05:32:01;;;;;;;;;;;19.40;99.90;;;;;;5007074;28;19929;-66
2022/09/26 05:34:32;;;;;;;;;;;19.80;99.90;;;;;;5012771;28;19932;-66
2022/09/26 05:37:00;;;;;;;;;;;20.10;99.90;;;;;;5026103;28;20011;-64
2022/09/26 05:42:14;;;;;;;;;;;20.40;99.90;;;;;;5005852;28;19929;-65
2022/09/26 05:44:42;;;;;;;;;;;20.50;99.90;;;;;;5009229;28;19926;-65
2022/09/26 05:47:10;;;;;;;;;;;20.50;99.90;;;;;;5010041;28;19936;-67
2022/09/26 05:49:37;;;;;;;;;;;20.50;99.90;;;;;;5022108;28;19936;-69
2022/09/26 05:52:05;;;;;;;;;;;20.50;99.90;;;;;;5013570;28;19925;-65
2022/09/26 05:54:32;;;;;;;;;;;20.60;99.90;;;;;;5014054;28;19925;-66
2022/09/26 05:57:05;;;;;;;;;;;20.60;99.90;;;;;;5008231;28;19929;-68
2022/09/26 05:59:42;;;;;;;;;;;20.60;99.90;;;;;;5009832;28;19932;-66
2022/09/26 06:02:35;;;;;;;;;;;20.60;99.90;;;;;;5034180;28;19928;-65
2022/09/26 06:05:16;;;;;;;;;;;20.60;99.90;;;;;;5021932;28;19936;-66
2022/09/26 06:08:10;;;;;;;;;;;20.60;99.90;;;;;;5010743;28;19936;-68
2022/09/26 06:10:41;;;;;;;;;;;20.60;99.90;;;;;;5014580;28;19929;-64
2022/09/26 06:13:08;;;;;;;;;;;20.60;99.90;;;;;;5028813;28;19932;-66
2022/09/26 06:15:42;;;;;;;;;;;20.60;99.90;;;;;;5020365;28;19933;-66
2022/09/26 06:18:10;;;;;;;;;;;20.60;99.90;;;;;;5014424;28;19929;-65
2022/09/26 06:20:37;;;;;;;;;;;20.60;99.90;;;;;;5046781;28;19924;-68
2022/09/26 06:23:04;;;;;;;;;;;20.60;99.90;;;;;;5008805;28;19936;-67
2022/09/26 06:25:33;;;;;;;;;;;20.60;99.90;;;;;;5015047;28;19936;-67
2022/09/26 06:28:02;;;;;;;;;;;20.60;99.90;;;;;;5013269;28;19926;-66
2022/09/26 06:30:30;;;;;;;;;;;20.60;99.90;;;;;;5017735;28;19933;-69
2022/09/26 06:33:07;;;;;;;;;;;20.60;99.90;;;;;;5013291;28;19933;-66
2022/09/26 06:35:41;;;;;;;;;;;20.50;99.90;;;;;;5005897;28;19933;-65
2022/09/26 06:38:10;;;;;;;;;;;20.50;99.90;;;;;;5008390;28;19929;-66
2022/09/26 06:40:37;;;;;;;;;;;20.50;99.90;;;;;;5010210;28;19933;-68
2022/09/26 06:43:04;;;;;;;;;;;20.60;99.90;;;;;;5013658;28;20393;-68
2022/09/26 06:46:04;;;;;;;;;;;20.60;99.90;;;;;;5012804;28;20312;-66
2022/09/26 06:48:55;;;;;;;;;;;20.70;99.90;;;;;;5014720;28;19933;-69
2022/09/26 06:51:47;;;;;;;;;;;20.90;99.90;;;;;;5009657;28;19928;-67
2022/09/26 06:54:16;;;;;;;;;;;21.10;99.90;;;;;;5010332;28;19930;-66
2022/09/26 06:56:43;;;;;;;;;;;21.30;99.90;;;;;;4999963;28;19929;-67
2022/09/26 06:59:11;;;;;;;;;;;21.40;99.90;;;;;;5006060;28;20302;-67
2022/09/26 07:01:48;;;;;;;;;;;21.50;99.90;;;;;;5007100;28;19926;-67
2022/09/26 07:04:41;;;;;;;;;;;21.60;99.90;;;;;;5008144;28;19929;-66
2022/09/26 07:07:29;;;;;;;;;;;21.70;99.90;;;;;;5013269;28;19940;-67
2022/09/26 07:09:56;;;;;;;;;;;21.80;99.90;;;;;;5009324;28;20297;-66
2022/09/26 07:12:39;;;;;;;;;;;21.90;99.90;;;;;;5021146;28;19936;-69
2022/09/26 07:15:07;;;;;;;;;;;21.90;99.90;;;;;;5019317;28;19944;-67
2022/09/26 07:17:34;;;;;;;;;;;21.90;99.90;;;;;;5033847;28;20511;-65
2022/09/26 07:20:39;;;;;;;;;;;22.00;99.90;;;;;;5016505;28;19925;-68
2022/09/26 07:23:25;;;;;;;;;;;22.00;99.90;;;;;;4968085;28;20294;-63
2022/09/26 07:25:52;;;;;;;;;;;22.00;99.90;;;;;;4969831;28;19933;-60
2022/09/26 07:28:20;;;;;;;;;;;22.00;99.90;;;;;;4962496;28;19938;-59
2022/09/26 07:30:48;;;;;;;;;;;22.10;99.90;;;;;;4969810;28;19957;-57
2022/09/26 07:33:48;;;;;;;;;;;22.10;99.90;;;;;;4968416;28;19934;-60
2022/09/26 07:36:17;;;;;;;;;;;22.20;99.90;;;;;;4968511;28;19961;-61
2022/09/26 07:38:48;;;;;;;;;;;22.20;99.90;;;;;;4953531;28;19933;-59
2022/09/26 07:41:17;;;;;;;;;;;22.20;99.90;;;;;;4968964;28;20317;-61
2022/09/26 07:43:45;;;;;;;;;;;22.20;99.90;;;;;;4967909;28;19930;-62
2022/09/26 07:52:06;;;;;;;;;;;22.30;99.90;;;;;;4971856;28;20310;-59
2022/09/26 07:54:45;;;;;;;;;;;22.20;99.90;;;;;;4966226;28;19930;-59
2022/09/26 07:57:38;;;;;;;;;;;22.10;99.90;;;;;;4969055;28;20419;-59
2022/09/26 08:00:33;;;;;;;;;;;22.10;99.90;;;;;;4968581;28;19927;-58
2022/09/26 08:03:17;;;;;;;;;;;22.10;99.90;;;;;;4970112;28;19930;-61
2022/09/26 08:05:44;;;;;;;;;;;22.00;99.90;;;;;;4960856;28;19952;-60
2022/09/26 08:08:13;;;;;;;;;;;22.00;99.90;;;;;;4968569;28;20007;-60
2022/09/26 08:10:58;;;;;;;;;;;22.00;99.90;;;;;;4975278;28;19930;-58
2022/09/26 08:13:45;;;;;;;;;;;22.00;99.90;;;;;;4976311;28;19930;-59
2022/09/26 08:16:22;;;;;;;;;;;21.90;99.90;;;;;;4976449;28;19934;-57
2022/09/26 08:18:53;;;;;;;;;;;21.90;99.90;;;;;;4968369;28;19926;-61
2022/09/26 08:21:21;;;;;;;;;;;21.80;99.90;;;;;;4949122;28;20504;-60
2022/09/26 08:23:53;;;;;;;;;;;21.80;99.90;;;;;;4963939;28;19934;-58
2022/09/26 08:26:55;;;;;;;;;;;21.80;99.90;;;;;;4902917;29;20733;-60
2022/09/26 08:29:29;;;;;;;;;;;21.70;99.90;;;;;;4943505;28;19950;-61
2022/09/26 08:31:57;;;;;;;;;;;21.80;99.90;;;;;;4980100;28;20317;-60
2022/09/26 08:34:24;;;;;;;;;;;21.80;99.90;;;;;;4966871;28;19937;-61
2022/09/26 08:37:10;;;;;;;;;;;21.80;99.90;;;;;;4970603;28;19926;-60
2022/09/26 08:39:59;;;;;;;;;;;21.80;99.90;;;;;;4963680;28;19930;-58
2022/09/26 08:42:57;;;;;;;;;;;21.80;99.90;;;;;;4963597;28;19930;-60
2022/09/26 08:49:13;;;;;;;;;;;21.70;99.90;;;;;;4969876;28;19934;-60
2022/09/26 08:51:42;;;;;;;;;;;21.70;99.90;;;;;;4972992;28;20643;-59
2022/09/26 08:54:11;;;;;;;;;;;21.70;99.90;;;;;;4971813;28;20015;-61
2022/09/26 08:56:40;;;;;;;;;;;21.70;99.90;;;;;;4963196;28;19930;-58
2022/09/26 08:59:12;;;;;;;;;;;21.70;99.90;;;;;;4964852;28;19926;-55
2022/09/26 09:01:42;;;;;;;;;;;21.70;99.90;;;;;;4967877;28;19957;-55
2022/09/26 09:04:48;;;;;;;;;;;21.70;99.90;;;;;;4969030;28;19930;-59
2022/09/26 09:07:22;;;;;;;;;;;21.70;99.90;;;;;;4967822;28;20318;-56
2022/09/26 09:09:50;;;;;;;;;;;21.70;99.90;;;;;;4969115;28;19934;-59
2022/09/26 09:13:04;;;;;;;;;;;21.70;99.90;;;;;;4963070;28;19937;-60
2022/09/26 09:16:16;;;;;;;;;;;21.70;99.90;;;;;;4969999;28;20424;-59
2022/09/26 09:19:27;;;;;;;;;;;21.60;99.90;;;;;;4958478;28;19926;-61
2022/09/26 09:22:24;;;;;;;;;;;21.60;99.90;;;;;;4963951;28;20376;-59
2022/09/26 09:25:21;;;;;;;;;;;21.60;99.90;;;;;;4965950;28;19929;-60
2022/09/26 09:28:08;;;;;;;;;;;21.60;99.90;;;;;;4967339;28;19934;-62
2022/09/26 09:30:44;;;;;;;;;;;21.50;99.90;;;;;;4962870;28;19926;-60
2022/09/26 09:33:32;;;;;;;;;;;21.50;99.90;;;;;;4972084;28;20402;-57
2022/09/26 09:36:24;;;;;;;;;;;21.50;99.90;;;;;;4969729;28;19938;-60
2022/09/26 09:39:38;;;;;;;;;;;21.50;99.90;;;;;;4974398;28;19926;-60
2022/09/26 09:42:27;;;;;;;;;;;21.40;99.90;;;;;;4979086;28;19930;-59
2022/09/26 09:44:57;;;;;;;;;;;21.50;99.90;;;;;;4959889;28;19930;-59
2022/09/26 09:47:26;;;;;;;;;;;21.50;99.90;;;;;;4972701;28;19930;-58
2022/09/26 09:49:54;;;;;;;;;;;21.40;99.90;;;;;;4971372;28;20395;-59
2022/09/26 09:52:25;;;;;;;;;;;21.40;99.90;;;;;;4969838;28;19930;-58
2022/09/26 09:55:12;;;;;;;;;;;21.50;99.90;;;;;;4966664;28;19930;-60
2022/09/26 09:58:03;;;;;;;;;;;21.50;99.90;;;;;;4950510;28;19941;-60
2022/09/26 10:00:32;;;;;;;;;;;21.60;99.90;;;;;;4948163;28;19949;-60
2022/09/26 10:03:18;;;;;;;;;;;21.60;99.90;;;;;;4971947;28;20565;-59
2022/09/26 10:05:49;;;;;;;;;;;21.50;99.90;;;;;;4964622;28;19926;-60
2022/09/26 10:08:35;;;;;;;;;;;21.50;99.90;;;;;;4970682;28;19933;-61
2022/09/26 10:11:24;;;;;;;;;;;21.50;99.90;;;;;;4975405;28;19930;-57
2022/09/26 10:13:58;;;;;;;;;;;21.50;99.90;;;;;;4970880;28;19930;-57
2022/09/26 10:17:04;;;;;;;;;;;21.50;99.90;;;;;;4960493;28;19937;-59
2022/09/26 10:19:36;;;;;;;;;;;21.50;99.90;;;;;;4973431;28;19926;-61
2022/09/26 10:22:08;;;;;;;;;;;21.50;99.90;;;;;;4954919;28;19938;-59
2022/09/26 10:24:40;;;;;;;;;;;21.40;99.90;;;;;;4967810;28;19926;-59
2022/09/26 10:27:22;;;;;;;;;;;21.40;99.90;;;;;;4952846;28;19937;-58
2022/09/26 10:29:59;;;;;;;;;;;21.40;99.90;;;;;;4964457;28;20678;-55
2022/09/26 10:32:27;;;;;;;;;;;21.40;99.90;;;;;;4949505;28;19949;-54
2022/09/26 10:35:19;;;;;;;;;;;21.40;99.90;;;;;;4953869;28;19926;-59
2022/09/26 10:38:12;;;;;;;;;;;21.50;99.90;;;;;;4975008;28;19937;-61
2022/09/26 10:40:48;;;;;;;;;;;21.60;99.90;;;;;;4922169;28;19930;-60
2022/09/26 10:43:31;;;;;;;;;;;21.60;99.90;;;;;;4983956;28;20401;-59
2022/09/26 10:46:07;;;;;;;;;;;21.70;99.90;;;;;;4951429;28;20562;-60
2022/09/26 10:48:55;;;;;;;;;;;21.70;99.90;;;;;;4969104;28;19926;-59
2022/09/26 10:51:44;;;;;;;;;;;21.70;99.90;;;;;;4971932;28;19974;-60
2022/09/26 10:54:15;;;;;;;;;;;21.70;99.90;;;;;;4966425;28;19933;-60
2022/09/26 10:56:46;;;;;;;;;;;21.70;99.90;;;;;;4969453;28;19930;-58
2022/09/26 10:59:16;;;;;;;;;;;21.70;99.90;;;;;;4968515;28;19937;-58
2022/09/26 11:01:49;;;;;;;;;;;21.70;99.90;;;;;;4974089;28;19930;-60
2022/09/26 11:07:34;;;;;;;;;;;21.70;99.90;;;;;;4969698;28;19950;-58
2022/09/26 11:10:31;;;;;;;;;;;21.70;99.90;;;;;;4965026;28;19934;-60
2022/09/26 11:13:19;;;;;;;;;;;21.60;99.90;;;;;;4964591;28;19941;-62
2022/09/26 11:16:07;;;;;;;;;;;21.60;99.90;;;;;;4984760;28;19934;-59
2022/09/26 11:18:42;;;;;;;;;;;21.60;99.90;;;;;;4982773;28;19934;-62
2022/09/26 11:21:16;;;;;;;;;;;21.60;99.90;;;;;;4970340;28;19927;-61
2022/09/26 11:24:02;;;;;;;;;;;21.60;99.90;;;;;;4975408;28;19938;-63
2022/09/26 11:26:32;;;;;;;;;;;21.60;99.90;;;;;;4968838;28;20397;-63
2022/09/26 11:29:17;;;;;;;;;;;21.60;99.90;;;;;;4969574;28;19914;-63
2022/09/26 11:31:55;;;;;;;;;;;21.60;99.90;;;;;;4973339;28;20367;-63
2022/09/26 11:35:01;;;;;;;;;;;21.60;99.90;;;;;;4965592;28;20296;-63
2022/09/26 11:37:35;;;;;;;;;;;21.60;99.90;;;;;;4963926;28;20397;-62
2022/09/26 11:40:21;;;;;;;;;;;21.60;99.90;;;;;;4971881;28;20394;-62
2022/09/26 11:43:07;;;;;;;;;;;21.50;99.90;;;;;;4961333;28;20424;-62
2022/09/26 11:45:51;;;;;;;;;;;21.50;99.90;;;;;;4952697;28;19945;-61
2022/09/26 11:49:00;;;;;;;;;;;21.50;99.90;;;;;;4962614;28;19930;-62
2022/09/26 11:51:57;;;;;;;;;;;21.50;99.90;;;;;;4970727;28;19942;-61
2022/09/26 11:54:27;;;;;;;;;;;21.50;99.90;;;;;;4965259;28;20390;-59
2022/09/26 11:57:10;;;;;;;;;;;21.50;99.90;;;;;;4969983;28;19929;-60
2022/09/26 11:59:43;;;;;;;;;;;21.40;99.90;;;;;;4966651;28;19937;-60
2022/09/26 12:02:16;;;;;;;;;;;21.40;99.90;;;;;;4967949;28;20363;-60
2022/09/26 12:05:02;;;;;;;;;;;21.40;99.90;;;;;;4968867;28;19933;-65
2022/09/26 12:07:38;;;;;;;;;;;21.40;99.90;;;;;;4970052;28;19937;-58
2022/09/26 12:10:34;;;;;;;;;;;21.40;99.90;;;;;;4967671;28;19930;-61
2022/09/26 12:13:22;;;;;;;;;;;21.40;99.90;;;;;;4932552;28;20418;-61
2022/09/26 12:16:05;;;;;;;;;;;21.40;99.90;;;;;;4967436;28;20075;-62
2022/09/26 12:18:35;;;;;;;;;;;21.40;99.90;;;;;;4974624;28;19930;-60
2022/09/26 12:21:31;;;;;;;;;;;21.40;99.90;;;;;;4961738;28;20309;-61
2022/09/26 12:24:05;;;;;;;;;;;21.40;99.90;;;;;;4960342;28;19933;-62
2022/09/26 12:26:35;;;;;;;;;;;21.40;99.90;;;;;;4969146;28;19937;-63
2022/09/26 12:29:22;;;;;;;;;;;21.40;99.90;;;;;;4969003;28;19934;-62
2022/09/26 12:31:55;;;;;;;;;;;21.40;99.90;;;;;;4969675;28;19930;-64
2022/09/26 12:34:50;;;;;;;;;;;21.20;99.90;;;;;;4968514;28;21046;-61
2022/09/26 12:37:40;;;;;;;;;;;21.30;99.90;;;;;;4954255;28;19926;-64
2022/09/26 12:40:23;;;;;;;;;;;21.20;99.90;;;;;;4986468;28;19933;-63
2022/09/26 12:42:50;;;;;;;;;;;21.30;99.90;;;;;;4968366;28;19934;-63
2022/09/26 12:45:26;;;;;;;;;;;21.20;99.90;;;;;;4970280;28;20302;-58
2022/09/26 12:48:05;;;;;;;;;;;21.30;99.90;;;;;;4971294;28;19949;-63
2022/09/26 12:50:48;;;;;;;;;;;21.30;99.90;;;;;;4975246;28;19937;-63
2022/09/26 12:53:38;;;;;;;;;;;21.40;99.90;;;;;;4973535;28;19930;-61
2022/09/26 12:56:10;;;;;;;;;;;21.40;99.90;;;;;;4976912;28;19930;-69
2022/09/26 12:58:44;;;;;;;;;;;21.50;99.90;;;;;;4966149;28;20309;-64
2022/09/26 13:01:17;;;;;;;;;;;21.50;99.90;;;;;;4971648;28;19930;-63
2022/09/26 13:04:00;;;;;;;;;;;21.60;99.90;;;;;;4968543;28;19929;-64
2022/09/26 13:06:41;;;;;;;;;;;21.60;99.90;;;;;;4968852;28;20424;-62
2022/09/26 13:09:28;;;;;;;;;;;21.70;99.90;;;;;;4970633;28;19926;-64
2022/09/26 13:12:12;;;;;;;;;;;21.70;99.90;;;;;;4970540;28;19937;-65
2022/09/26 13:14:59;;;;;;;;;;;21.80;99.90;;;;;;4969249;28;19937;-64
2022/09/26 13:17:26;;;;;;;;;;;21.80;99.90;;;;;;4957046;28;19930;-65
2022/09/26 13:19:57;;;;;;;;;;;21.80;99.90;;;;;;4969578;28;19930;-67
2022/09/26 13:22:43;;;;;;;;;;;21.80;99.90;;;;;;4974404;28;19930;-67
2022/09/26 13:25:13;;;;;;;;;;;21.80;99.90;;;;;;4974529;28;19930;-67
2022/09/26 13:27:43;;;;;;;;;;;21.80;99.90;;;;;;4972355;28;19930;-67
2022/09/26 13:30:16;;;;;;;;;;;21.80;99.90;;;;;;4974807;28;20327;-67
2022/09/26 13:32:54;;;;;;;;;;;21.80;99.90;;;;;;4974242;28;20496;-66
2022/09/26 13:35:22;;;;;;;;;;;21.80;99.90;;;;;;4974268;28;19930;-66
2022/09/26 13:38:13;;;;;;;;;;;21.80;99.90;;;;;;4977148;28;20314;-66
2022/09/26 13:40:51;;;;;;;;;;;21.80;99.90;;;;;;4968192;28;20310;-66
2022/09/26 13:43:24;;;;;;;;;;;21.80;99.90;;;;;;4977448;28;20342;-66
2022/09/26 13:46:14;;;;;;;;;;;21.80;99.90;;;;;;4976515;28;19930;-67
2022/09/26 13:48:49;;;;;;;;;;;21.80;99.90;;;;;;4972323;28;19926;-66
2022/09/26 13:51:20;;;;;;;;;;;21.80;99.90;;;;;;4974387;28;19937;-66
2022/09/26 13:53:56;;;;;;;;;;;21.70;99.90;;;;;;4969639;28;20379;-65
2022/09/26 13:56:33;;;;;;;;;;;21.70;99.90;;;;;;4973055;28;19937;-66
2022/09/26 13:59:02;;;;;;;;;;;21.70;99.90;;;;;;4972131;28;19930;-66
2022/09/26 14:01:29;;;;;;;;;;;21.70;99.90;;;;;;4973463;28;19973;-66
2022/09/26 14:04:16;;;;;;;;;;;21.70;99.90;;;;;;4974861;28;20283;-64
2022/09/26 14:07:01;;;;;;;;;;;21.70;99.90;;;;;;4969726;28;19930;-66
2022/09/26 14:09:51;;;;;;;;;;;21.70;99.90;;;;;;4976904;28;19934;-65
2022/09/26 14:12:20;;;;;;;;;;;21.70;99.90;;;;;;4973121;28;19926;-64
2022/09/26 14:14:51;;;;;;;;;;;21.70;99.90;;;;;;4972250;28;19940;-65
2022/09/26 14:17:37;;;;;;;;;;;21.60;99.90;;;;;;4969287;28;19930;-66
2022/09/26 14:20:04;;;;;;;;;;;21.60;99.90;;;;;;4976659;28;19961;-65
2022/09/26 14:22:33;;;;;;;;;;;21.60;99.90;;;;;;4970603;28;19930;-66
2022/09/26 14:25:23;;;;;;;;;;;21.60;99.90;;;;;;4968896;28;19934;-65
2022/09/26 14:28:07;;;;;;;;;;;21.50;99.90;;;;;;4966754;28;19953;-65
2022/09/26 14:30:36;;;;;;;;;;;21.50;99.90;;;;;;4971359;28;19960;-65
2022/09/26 14:33:05;;;;;;;;;;;21.50;99.90;;;;;;4966635;28;19936;-65
2022/09/26 14:35:34;;;;;;;;;;;21.40;99.90;;;;;;4972666;28;19933;-66
2022/09/26 14:38:06;;;;;;;;;;;21.50;99.90;;;;;;4978617;28;19929;-64
2022/09/26 14:40:36;;;;;;;;;;;21.40;99.90;;;;;;4964940;28;20132;-65
2022/09/26 14:43:23;;;;;;;;;;;21.40;99.90;;;;;;4971536;28;20306;-66
2022/09/26 14:45:52;;;;;;;;;;;21.40;99.90;;;;;;4972435;28;19933;-66
2022/09/26 14:48:35;;;;;;;;;;;21.40;99.90;;;;;;4972332;28;20349;-66
2022/09/26 14:51:05;;;;;;;;;;;21.30;99.90;;;;;;4964830;28;19930;-65
2022/09/26 14:53:51;;;;;;;;;;;21.30;99.90;;;;;;4970389;28;19926;-66
2022/09/26 14:56:36;;;;;;;;;;;21.30;99.90;;;;;;4971650;28;20417;-65
2022/09/26 14:59:15;;;;;;;;;;;21.30;99.90;;;;;;4982988;28;19930;-65
2022/09/26 15:01:43;;;;;;;;;;;21.40;99.90;;;;;;4968225;28;20413;-65
2022/09/26 15:04:15;;;;;;;;;;;21.40;99.90;;;;;;4966296;28;19927;-64
2022/09/26 15:06:46;;;;;;;;;;;21.40;99.90;;;;;;4971173;28;20421;-65
2022/09/26 15:09:39;;;;;;;;;;;21.40;99.90;;;;;;4964990;28;19953;-65
2022/09/26 15:12:14;;;;;;;;;;;21.40;99.90;;;;;;4969738;28;20422;-65
2022/09/26 15:14:53;;;;;;;;;;;21.50;99.90;;;;;;4978496;28;20571;-65
2022/09/26 15:17:30;;;;;;;;;;;21.50;99.90;;;;;;5010341;22;19947;-66
2022/09/26 15:19:58;;;;;;;;;;;21.50;99.90;;;;;;5035566;28;19925;-68
2022/09/26 15:22:27;;;;;;;;;;;21.60;99.90;;;;;;5006880;28;19929;-66
2022/09/26 15:25:05;;;;;;;;;;;21.60;99.90;;;;;;5033030;28;19933;-66
2022/09/26 15:27:32;;;;;;;;;;;21.70;99.90;;;;;;5022022;28;19928;-68